Time;durP1;ratioP1;P1;durP2;ratioP2;P2;SDS_P1;SDS_P2;PMS_P1;PMS_P2;Temp;Humidity;BMP_temperature;BMP_pressure;BME280_temperature;BME280_humidity;BME280_pressure;Samples;Min_cycle;Max_cycle;Signal;HPM_P1;HPM_P2
2021/12/11 00:02:30;;;;;;;30.75;11.38;;;;;;;0.47;100.00;99519.34;5197191;28;20038;-78
2021/12/11 00:05:01;;;;;;;24.65;10.65;;;;;;;0.67;100.00;99523.38;5190903;28;20841;-79
2021/12/11 00:07:31;;;;;;;29.45;11.48;;;;;;;0.64;100.00;99520.84;5191399;28;20128;-79
2021/12/11 00:10:12;;;;;;;26.88;11.90;;;;;;;0.61;100.00;99528.59;5190025;28;20032;-81
2021/12/11 00:12:48;;;;;;;28.88;11.98;;;;;;;0.72;100.00;99537.00;5184250;28;20037;-79
2021/12/11 00:15:24;;;;;;;29.70;12.05;;;;;;;0.65;100.00;99529.41;5190434;28;20029;-78
2021/12/11 00:18:00;;;;;;;28.90;12.15;;;;;;;0.68;100.00;99540.50;5189696;28;20531;-78
2021/12/11 00:20:33;;;;;;;28.77;13.00;;;;;;;0.66;100.00;99547.38;5180007;28;20040;-79
2021/12/11 00:23:05;;;;;;;29.27;12.23;;;;;;;0.66;100.00;99547.38;5191530;28;20100;-83
2021/12/11 00:25:44;;;;;;;28.52;12.80;;;;;;;0.78;100.00;99552.38;5200559;28;20055;-78
2021/12/11 00:28:15;;;;;;;28.42;12.57;;;;;;;0.73;100.00;99554.13;5179805;28;20165;-77
2021/12/11 00:30:46;;;;;;;32.50;13.40;;;;;;;0.66;100.00;99552.53;5183536;28;20160;-81
2021/12/11 00:33:24;;;;;;;35.42;13.68;;;;;;;0.72;100.00;99567.03;5188263;28;20037;-81
2021/12/11 00:35:55;;;;;;;27.75;11.70;;;;;;;0.63;100.00;99567.97;5186511;28;20068;-78
2021/12/11 00:38:33;;;;;;;33.10;12.23;;;;;;;0.64;100.00;99568.81;5187030;28;20033;-79
2021/12/11 00:41:07;;;;;;;28.48;12.27;;;;;;;0.73;100.00;99579.00;5189187;28;20048;-79
2021/12/11 00:43:40;;;;;;;27.67;11.32;;;;;;;0.75;100.00;99582.41;5186459;28;20212;-78
2021/12/11 00:46:15;;;;;;;32.33;13.50;;;;;;;0.81;100.00;99592.59;5191783;28;20359;-78
2021/12/11 00:48:45;;;;;;;32.38;13.27;;;;;;;0.72;100.00;99592.72;5184588;28;20312;-79
2021/12/11 00:51:19;;;;;;;32.78;13.27;;;;;;;0.79;100.00;99607.19;5192031;28;20495;-78
2021/12/11 00:53:57;;;;;;;33.10;13.52;;;;;;;0.75;100.00;99602.97;5189516;28;20025;-79
2021/12/11 00:56:31;;;;;;;34.33;12.82;;;;;;;0.73;100.00;99615.81;5189943;28;20463;-78
2021/12/11 00:59:08;;;;;;;35.72;13.32;;;;;;;0.74;100.00;99620.09;5190119;28;20036;-79
2021/12/11 01:01:52;;;;;;;35.85;13.02;;;;;;;0.67;100.00;99626.19;5200577;28;20091;-78
2021/12/11 01:04:30;;;;;;;33.50;12.68;;;;;;;0.91;100.00;99625.03;5191255;28;20355;-78
2021/12/11 01:07:04;;;;;;;32.95;12.65;;;;;;;0.88;100.00;99636.22;5190485;28;20087;-78
2021/12/11 01:09:42;;;;;;;35.78;13.18;;;;;;;0.75;100.00;99639.78;5188454;28;20029;-78
2021/12/11 01:12:20;;;;;;;32.75;12.48;;;;;;;0.75;100.00;99649.25;5188560;28;20022;-78
2021/12/11 01:15:07;;;;;;;34.20;12.70;;;;;;;0.80;100.00;99643.19;5188939;28;20112;-79
2021/12/11 01:17:47;;;;;;;34.38;13.65;;;;;;;0.71;100.00;99642.44;5184306;28;20030;-78
2021/12/11 01:20:23;;;;;;;33.42;13.15;;;;;;;0.73;100.00;99651.81;5189836;28;20057;-78
2021/12/11 01:22:54;;;;;;;37.28;13.73;;;;;;;0.86;100.00;99663.66;5189989;28;20104;-79
2021/12/11 01:25:27;;;;;;;36.63;13.77;;;;;;;0.87;100.00;99665.38;5188749;28;20480;-78
2021/12/11 01:28:02;;;;;;;33.22;13.35;;;;;;;0.90;100.00;99675.59;5191867;28;20033;-79
2021/12/11 01:30:37;;;;;;;39.63;14.65;;;;;;;0.80;100.00;99675.72;5192581;28;20435;-78
2021/12/11 01:33:10;;;;;;;37.92;14.43;;;;;;;1.12;100.00;99683.94;5188249;28;20053;-79
2021/12/11 01:35:42;;;;;;;26.77;12.10;;;;;;;0.98;100.00;99684.09;5189120;28;20029;-79
2021/12/11 01:38:14;;;;;;;28.33;12.82;;;;;;;0.82;100.00;99685.16;5191336;28;20083;-79
2021/12/11 01:40:49;;;;;;;28.58;11.48;;;;;;;0.82;100.00;99698.00;5192836;28;20040;-79
2021/12/11 01:43:26;;;;;;;32.37;12.97;;;;;;;0.76;100.00;99703.19;5191773;28;20056;-78
2021/12/11 01:46:00;;;;;;;27.70;11.88;;;;;;;0.74;100.00;99715.22;5193911;28;20052;-78
2021/12/11 01:48:35;;;;;;;32.20;12.07;;;;;;;0.85;100.00;99726.25;5191309;28;20042;-79
2021/12/11 01:51:22;;;;;;;30.30;13.13;;;;;;;0.98;100.00;99716.66;5188231;28;20092;-78
2021/12/11 01:53:59;;;;;;;31.67;12.30;;;;;;;1.13;100.00;99722.50;5193040;28;20096;-79
2021/12/11 01:56:32;;;;;;;30.63;13.02;;;;;;;1.02;100.00;99721.78;5194558;28;20041;-79
2021/12/11 01:59:12;;;;;;;30.33;12.48;;;;;;;1.04;100.00;99732.06;5188524;28;20132;-79
2021/12/11 02:01:57;;;;;;;34.83;12.88;;;;;;;0.78;100.00;99737.47;5199901;28;20030;-78
2021/12/11 02:04:31;;;;;;;35.97;12.93;;;;;;;0.84;100.00;99731.38;5194748;28;20025;-79
2021/12/11 02:07:08;;;;;;;34.58;13.15;;;;;;;0.82;100.00;99731.44;5190710;28;20500;-78
2021/12/11 02:09:43;;;;;;;29.55;12.50;;;;;;;0.82;100.00;99744.28;5188481;28;20033;-79
2021/12/11 02:12:20;;;;;;;36.63;13.38;;;;;;;0.78;100.00;99739.19;5193393;28;20032;-79
2021/12/11 02:14:53;;;;;;;30.00;12.60;;;;;;;0.86;100.00;99751.09;5183958;28;20479;-78
2021/12/11 02:17:59;;;;;;;32.40;13.32;;;;;;;0.92;100.00;99751.00;5191334;28;20037;-79
2021/12/11 02:20:35;;;;;;;37.20;13.68;;;;;;;0.96;100.00;99757.84;5194651;28;20033;-78
2021/12/11 02:23:06;;;;;;;34.05;13.35;;;;;;;0.91;100.00;99759.59;5187431;28;20041;-78
2021/12/11 02:25:41;;;;;;;31.88;12.85;;;;;;;0.95;100.00;99763.00;5193641;28;20036;-78
2021/12/11 02:28:28;;;;;;;36.35;13.40;;;;;;;1.02;100.00;99772.34;5191636;28;20472;-78
2021/12/11 02:31:27;;;;;;;29.95;12.75;;;;;;;0.96;100.00;99768.13;5197904;28;20060;-79
2021/12/11 02:34:33;;;;;;;33.67;13.45;;;;;;;0.98;100.00;99761.25;5193417;28;20034;-79
2021/12/11 02:37:06;;;;;;;30.05;12.48;;;;;;;0.98;100.00;99776.69;5185974;28;20487;-78
2021/12/11 02:39:44;;;;;;;31.40;13.07;;;;;;;0.86;100.00;99771.66;5193976;28;20055;-79
2021/12/11 02:42:26;;;;;;;35.55;14.13;;;;;;;0.90;100.00;99773.31;5191030;28;20022;-79
2021/12/11 02:45:14;;;;;;;39.20;14.57;;;;;;;0.91;100.00;99772.44;5191158;28;20116;-79
2021/12/11 02:48:00;;;;;;;32.78;13.07;;;;;;;0.91;100.00;99777.59;5177731;28;20034;-78
2021/12/11 02:50:36;;;;;;;30.60;12.40;;;;;;;0.86;100.00;99770.81;5190610;28;20053;-78
2021/12/11 02:53:19;;;;;;;29.17;12.20;;;;;;;1.09;100.00;99787.69;5187495;28;20057;-79
2021/12/11 02:56:13;;;;;;;30.20;12.10;;;;;;;1.31;100.00;99791.75;5191538;28;20034;-79
2021/12/11 02:58:47;;;;;;;37.70;12.57;;;;;;;0.91;100.00;99795.59;5188039;28;20034;-79
2021/12/11 03:01:25;;;;;;;28.47;12.20;;;;;;;0.74;100.00;99797.47;5198014;28;20099;-79
2021/12/11 03:04:04;;;;;;;27.77;10.90;;;;;;;0.92;100.00;99794.72;5193517;28;20121;-78
2021/12/11 03:06:41;;;;;;;25.65;11.93;;;;;;;1.04;100.00;99804.91;5192824;28;20088;-79
2021/12/11 03:09:14;;;;;;;26.42;11.93;;;;;;;1.10;100.00;99815.13;5191170;28;20025;-79
2021/12/11 03:11:46;;;;;;;25.45;11.20;;;;;;;1.05;100.00;99809.19;5191674;28;20034;-78
2021/12/11 03:14:18;;;;;;;27.33;11.27;;;;;;;0.85;100.00;99815.38;5191634;28;20484;-78
2021/12/11 03:16:50;;;;;;;24.27;10.77;;;;;;;0.88;100.00;99816.22;5191185;28;20029;-79
2021/12/11 03:19:24;;;;;;;26.02;11.48;;;;;;;0.80;100.00;99820.59;5191702;28;20209;-79
2021/12/11 03:21:54;;;;;;;28.23;11.00;;;;;;;0.72;100.00;99835.19;5191094;28;20029;-79
2021/12/11 03:24:27;;;;;;;30.77;12.18;;;;;;;0.67;100.00;99831.81;5192438;28;20030;-79
2021/12/11 03:26:57;;;;;;;25.20;11.63;;;;;;;0.68;100.00;99827.53;5190001;28;20025;-79
2021/12/11 03:29:29;;;;;;;24.90;11.52;;;;;;;0.81;100.00;99839.41;5194008;28;20052;-78
2021/12/11 03:32:00;;;;;;;28.35;12.18;;;;;;;0.86;100.00;99846.22;5198144;28;20033;-79
2021/12/11 03:34:31;;;;;;;29.15;11.82;;;;;;;1.20;100.00;99852.75;5193163;28;20277;-78
2021/12/11 03:37:05;;;;;;;25.67;11.27;;;;;;;1.18;100.00;99862.22;5189171;28;20029;-78
2021/12/11 03:39:42;;;;;;;27.58;11.98;;;;;;;1.12;100.00;99861.44;5186992;28;20467;-79
2021/12/11 03:42:20;;;;;;;25.00;10.50;;;;;;;1.04;100.00;99869.22;5190829;28;20037;-78
2021/12/11 03:44:50;;;;;;;24.15;9.43;;;;;;;1.04;100.00;99866.63;5191497;28;20116;-78
2021/12/11 03:47:26;;;;;;;20.73;10.38;;;;;;;1.09;100.00;99882.88;5190522;28;20527;-78
2021/12/11 03:49:57;;;;;;;25.60;10.25;;;;;;;1.16;100.00;99878.53;5182370;28;20061;-78
2021/12/11 03:52:27;;;;;;;24.33;10.35;;;;;;;0.89;100.00;99874.47;5189026;28;20033;-79
2021/12/11 03:54:57;;;;;;;21.52;9.88;;;;;;;0.84;100.00;99878.81;5192324;28;20471;-79
2021/12/11 03:57:29;;;;;;;23.10;9.70;;;;;;;0.80;100.00;99889.13;5188924;28;20065;-78
2021/12/11 03:59:59;;;;;;;21.00;9.60;;;;;;;0.76;100.00;99888.28;5193264;28;20045;-79
2021/12/11 04:02:33;;;;;;;23.85;11.75;;;;;;;0.78;100.00;99889.16;5198555;28;20087;-78
2021/12/11 04:05:07;;;;;;;25.98;11.38;;;;;;;1.03;100.00;99898.38;5184982;28;20112;-78
2021/12/11 04:07:45;;;;;;;20.85;9.60;;;;;;;0.64;100.00;99906.41;5192113;28;20028;-78
2021/12/11 04:10:18;;;;;;;19.27;9.23;;;;;;;0.44;100.00;99910.81;5190651;28;20101;-78
2021/12/11 04:12:49;;;;;;;21.25;9.52;;;;;;;0.53;100.00;99918.47;5189686;28;20029;-79
2021/12/11 04:15:19;;;;;;;24.08;9.30;;;;;;;0.59;100.00;99917.56;5190792;28;20060;-78
2021/12/11 04:17:50;;;;;;;23.92;10.35;;;;;;;0.79;100.00;99920.84;5189322;28;20506;-78
2021/12/11 04:20:23;;;;;;;23.05;10.75;;;;;;;0.62;100.00;99931.25;5190423;28;20025;-78
2021/12/11 04:22:54;;;;;;;22.92;10.10;;;;;;;0.81;100.00;99927.69;5189245;28;20034;-78
2021/12/11 04:25:27;;;;;;;20.20;9.48;;;;;;;0.76;100.00;99933.75;5191193;28;20032;-79
2021/12/11 04:27:57;;;;;;;20.73;9.65;;;;;;;0.60;100.00;99947.53;5188658;28;20041;-78
2021/12/11 04:30:29;;;;;;;20.27;9.82;;;;;;;0.52;100.00;99955.31;5196079;28;20024;-79
2021/12/11 04:32:59;;;;;;;23.30;9.93;;;;;;;0.51;100.00;99956.16;5194026;28;20036;-79
2021/12/11 04:35:31;;;;;;;21.90;9.60;;;;;;;0.34;100.00;99962.22;5191968;28;20430;-78
2021/12/11 04:38:05;;;;;;;23.25;9.70;;;;;;;0.48;100.00;99966.47;5187764;28;20042;-78
2021/12/11 04:40:44;;;;;;;24.00;9.80;;;;;;;0.66;100.00;99968.94;5185520;28;20427;-78
2021/12/11 04:43:17;;;;;;;23.40;10.45;;;;;;;0.68;100.00;99963.75;5189819;28;20470;-78
2021/12/11 04:45:53;;;;;;;23.23;9.57;;;;;;;0.42;100.00;99984.47;5190840;28;20113;-79
2021/12/11 04:49:00;;;;;;;21.02;8.52;;;;;;;0.26;100.00;99982.84;5189122;28;20060;-79
2021/12/11 05:00:30;;;;;;;26.42;10.55;;;;;;;0.66;100.00;99983.47;5190040;28;20495;-78
2021/12/11 05:03:29;;;;;;;22.70;10.02;;;;;;;0.56;100.00;99995.53;5193498;28;20124;-78
2021/12/11 05:11:48;;;;;;;23.83;10.00;;;;;;;0.30;100.00;100010.22;5184745;28;20045;-79
2021/12/11 05:14:20;;;;;;;24.60;10.25;;;;;;;0.28;100.00;100011.09;5189326;28;20030;-78
2021/12/11 05:16:52;;;;;;;24.02;10.60;;;;;;;0.38;100.00;100013.63;5189602;28;20033;-79
2021/12/11 05:19:22;;;;;;;24.23;10.68;;;;;;;0.41;100.00;100012.75;5188298;28;20121;-78
2021/12/11 05:21:52;;;;;;;24.50;10.27;;;;;;;0.34;100.00;100017.06;5190413;28;20108;-79
2021/12/11 05:24:23;;;;;;;27.10;11.25;;;;;;;0.27;100.00;100030.81;5188663;28;20026;-79
2021/12/11 05:26:53;;;;;;;23.15;10.02;;;;;;;0.53;100.00;100031.53;5190948;28;20332;-78
2021/12/11 05:29:24;;;;;;;30.13;10.63;;;;;;;0.53;100.00;100044.38;5189307;28;20025;-78
2021/12/11 05:31:54;;;;;;;23.23;9.90;;;;;;;0.51;100.00;100055.53;5196232;28;20029;-78
2021/12/11 05:34:25;;;;;;;22.50;9.82;;;;;;;0.64;100.00;100057.19;5191389;28;20487;-79
2021/12/11 05:36:55;;;;;;;20.17;9.02;;;;;;;0.49;100.00;100062.38;5187982;28;20029;-79
2021/12/11 05:39:26;;;;;;;22.85;9.60;;;;;;;0.26;100.00;100062.50;5191162;28;20639;-78
2021/12/11 05:41:56;;;;;;;23.80;10.10;;;;;;;0.44;100.00;100065.00;5187421;28;20018;-78
2021/12/11 05:44:27;;;;;;;21.73;10.05;;;;;;;0.20;100.00;100067.63;5190678;28;20395;-79
2021/12/11 05:46:57;;;;;;;20.23;8.93;;;;;;;0.25;100.00;100068.47;5187377;28;20507;-79
2021/12/11 05:49:28;;;;;;;23.90;9.70;;;;;;;0.25;100.00;100081.31;5191360;28;20060;-78
2021/12/11 05:52:01;;;;;;;21.35;9.82;;;;;;;0.16;100.00;100083.91;5191074;28;20519;-79
2021/12/11 05:54:32;;;;;;;27.70;9.52;;;;;;;0.25;100.00;100083.03;5187629;28;20029;-78
2021/12/11 05:57:07;;;;;;;23.80;10.07;;;;;;;0.45;100.00;100087.25;5183539;28;20055;-78
2021/12/11 05:59:40;;;;;;;24.45;10.85;;;;;;;0.43;100.00;100104.41;5191715;28;20095;-79
2021/12/11 06:02:27;;;;;;;25.95;10.82;;;;;;;0.24;100.00;100107.84;5194612;28;20483;-78
2021/12/11 06:04:59;;;;;;;24.55;9.20;;;;;;;0.24;100.00;100107.00;5187252;28;20038;-78
2021/12/11 06:07:30;;;;;;;23.35;10.75;;;;;;;0.45;100.00;100105.25;5190695;28;20072;-79
2021/12/11 06:10:08;;;;;;;20.08;9.43;;;;;;;0.42;100.00;100115.50;5186881;28;20041;-77
2021/12/11 06:12:38;;;;;;;23.50;9.40;;;;;;;0.20;100.00;100124.13;5185064;28;20026;-79
2021/12/11 06:15:10;;;;;;;21.77;10.02;;;;;;;0.43;100.00;100114.69;5193599;28;20032;-80
2021/12/11 06:17:42;;;;;;;21.60;9.88;;;;;;;0.21;100.00;100127.56;5181986;28;20610;-79
2021/12/11 06:20:18;;;;;;;21.92;9.80;;;;;;;0.34;100.00;100134.38;5194163;28;20030;-78
2021/12/11 06:22:48;;;;;;;21.33;10.30;;;;;;;0.31;100.00;100135.25;5193120;28;20018;-79
2021/12/11 06:25:28;;;;;;;23.27;10.10;;;;;;;0.23;100.00;100131.00;5192705;28;20656;-80
2021/12/11 06:27:59;;;;;;;22.05;10.15;;;;;;;0.26;100.00;100137.00;5193418;28;20092;-78
2021/12/11 06:30:29;;;;;;;24.33;10.45;;;;;;;0.09;100.00;100140.44;5183160;28;20029;-80
2021/12/11 06:33:00;;;;;;;24.30;10.68;;;;;;;0.15;100.00;100141.28;5197125;28;20036;-79
2021/12/11 06:35:48;;;;;;;27.10;10.98;;;;;;;0.16;100.00;100148.13;5194562;28;20045;-79
2021/12/11 06:38:23;;;;;;;25.02;10.50;;;;;;;0.11;100.00;100157.56;5190454;28;20530;-80
2021/12/11 06:40:55;;;;;;;23.50;10.43;;;;;;;-0.02;100.00;100163.56;5191341;28;20087;-79
2021/12/11 06:43:25;;;;;;;20.02;9.93;;;;;;;0.01;100.00;100175.53;5192702;28;20059;-79
2021/12/11 06:45:56;;;;;;;23.65;10.27;;;;;;;0.06;100.00;100184.94;5191464;28;20057;-80
2021/12/11 06:48:26;;;;;;;24.60;9.73;;;;;;;0.10;100.00;100188.38;5193857;28;20110;-80
2021/12/11 06:50:59;;;;;;;25.30;11.68;;;;;;;0.33;100.00;100197.78;5191148;28;20034;-79
2021/12/11 06:53:43;;;;;;;21.65;10.15;;;;;;;0.15;100.00;100205.50;5193910;28;20044;-80
2021/12/11 06:56:17;;;;;;;26.80;10.18;;;;;;;0.25;100.00;100216.63;5188813;28;20022;-79
2021/12/11 06:58:51;;;;;;;21.48;10.02;;;;;;;0.45;100.00;100218.31;5193502;28;20033;-78
2021/12/11 07:01:24;;;;;;;18.67;9.10;;;;;;;0.28;100.00;100224.31;5198670;28;20037;-78
2021/12/11 07:03:57;;;;;;;21.63;9.55;;;;;;;0.40;100.00;100225.16;5194483;28;20823;-79
2021/12/11 07:06:31;;;;;;;25.10;9.77;;;;;;;0.30;100.00;100231.19;5192681;28;20101;-79
2021/12/11 07:09:04;;;;;;;21.15;9.73;;;;;;;0.26;100.00;100229.47;5190493;28;20113;-80
2021/12/11 07:11:39;;;;;;;18.95;8.98;;;;;;;0.24;100.00;100235.47;5176912;28;20084;-79
2021/12/11 07:14:11;;;;;;;21.53;9.00;;;;;;;0.04;100.00;100245.72;5192906;28;20484;-80
2021/12/11 07:16:44;;;;;;;21.35;9.18;;;;;;;0.33;100.00;100245.72;5190984;28;20619;-79
2021/12/11 07:19:15;;;;;;;24.85;9.43;;;;;;;0.15;100.00;100262.00;5192051;28;20022;-78
2021/12/11 07:21:50;;;;;;;23.08;9.75;;;;;;;0.26;100.00;100249.16;5191398;28;20029;-79
2021/12/11 07:24:32;;;;;;;20.02;8.90;;;;;;;0.18;100.00;100259.44;5190964;28;20032;-80
2021/12/11 07:27:07;;;;;;;25.13;9.73;;;;;;;0.13;100.00;100273.13;5193244;28;20025;-80
2021/12/11 07:29:39;;;;;;;26.42;10.35;;;;;;;0.23;100.00;100283.41;5188639;28;20252;-81
2021/12/11 07:32:11;;;;;;;26.50;10.52;;;;;;;0.12;100.00;100287.69;5198520;28;20029;-79
2021/12/11 07:34:42;;;;;;;27.95;11.10;;;;;;;0.13;100.00;100288.53;5190589;28;20026;-80
2021/12/11 07:37:13;;;;;;;31.85;11.57;;;;;;;0.20;100.00;100288.53;5190609;28;20467;-78
2021/12/11 07:39:44;;;;;;;32.05;12.00;;;;;;;0.14;100.00;100295.38;5190623;28;20033;-80
2021/12/11 07:42:14;;;;;;;29.77;11.75;;;;;;;0.05;100.00;100301.34;5191175;28;20034;-78
2021/12/11 07:44:44;;;;;;;32.35;12.35;;;;;;;0.16;100.00;100299.69;5191196;28;20030;-80
2021/12/11 07:47:15;;;;;;;31.73;12.07;;;;;;;0.23;100.00;100298.81;5190564;28;20383;-78
2021/12/11 07:49:45;;;;;;;31.35;11.82;;;;;;;0.22;100.00;100312.53;5179325;28;20514;-80
2021/12/11 07:52:16;;;;;;;30.67;11.60;;;;;;;0.19;100.00;100316.81;5189412;28;20040;-80
2021/12/11 07:54:46;;;;;;;32.67;12.18;;;;;;;0.20;100.00;100327.06;5189544;28;20022;-80
2021/12/11 07:57:16;;;;;;;34.35;13.45;;;;;;;0.27;100.00;100318.53;5191421;28;20025;-80
2021/12/11 07:59:47;;;;;;;24.75;10.82;;;;;;;0.38;100.00;100324.53;5192296;28;20033;-79
2021/12/11 08:02:17;;;;;;;26.70;11.10;;;;;;;0.42;100.00;100328.81;5199939;28;20649;-79
2021/12/11 08:04:48;;;;;;;28.40;10.98;;;;;;;0.47;100.00;100336.53;5191529;28;20087;-79
2021/12/11 08:07:18;;;;;;;25.30;9.93;;;;;;;0.33;100.00;100338.22;5191073;28;20033;-80
2021/12/11 08:09:48;;;;;;;24.38;9.60;;;;;;;0.42;100.00;100333.94;5193750;28;20089;-79
2021/12/11 08:12:19;;;;;;;27.50;10.65;;;;;;;0.32;100.00;100342.53;5194369;28;20052;-79
2021/12/11 08:14:50;;;;;;;25.80;10.20;;;;;;;0.39;100.00;100344.22;5194543;28;20037;-80
2021/12/11 08:17:22;;;;;;;21.70;9.90;;;;;;;0.58;100.00;100347.69;5194520;28;20022;-80
2021/12/11 08:19:52;;;;;;;23.35;9.98;;;;;;;0.64;100.00;100348.56;5193858;28;20407;-80
2021/12/11 08:22:22;;;;;;;20.90;8.85;;;;;;;0.54;100.00;100348.53;5194829;28;20044;-81
2021/12/11 08:24:53;;;;;;;23.10;9.45;;;;;;;0.52;100.00;100357.97;5193263;28;20065;-80
2021/12/11 08:27:24;;;;;;;20.80;9.00;;;;;;;0.33;100.00;100359.66;5194348;28;20029;-81
2021/12/11 08:29:54;;;;;;;18.30;8.00;;;;;;;0.52;100.00;100363.13;5197200;28;20026;-80
2021/12/11 08:32:25;;;;;;;19.48;8.95;;;;;;;0.61;100.00;100371.69;5201523;28;20033;-78
2021/12/11 08:34:56;;;;;;;21.77;9.85;;;;;;;0.64;100.00;100381.97;5193748;28;20483;-80
2021/12/11 08:37:27;;;;;;;27.42;10.77;;;;;;;0.46;100.00;100387.09;5195025;28;20102;-80
2021/12/11 08:39:58;;;;;;;35.20;12.23;;;;;;;0.37;100.00;100381.91;5192335;28;20018;-80
2021/12/11 08:42:28;;;;;;;36.13;12.63;;;;;;;0.68;100.00;100387.94;5191855;28;20049;-79
2021/12/11 08:45:05;;;;;;;38.22;13.23;;;;;;;0.64;100.00;100396.53;5194136;28;20032;-80
2021/12/11 08:47:39;;;;;;;37.30;13.10;;;;;;;0.61;100.00;100402.53;5186418;28;20125;-80
2021/12/11 08:50:14;;;;;;;30.42;12.55;;;;;;;0.80;100.00;100403.41;5189331;28;20056;-80
2021/12/11 08:52:49;;;;;;;34.58;13.02;;;;;;;0.68;100.00;100408.50;5192422;28;20038;-79
2021/12/11 08:55:24;;;;;;;29.33;11.15;;;;;;;0.66;100.00;100407.66;5192875;28;20036;-80
2021/12/11 08:57:56;;;;;;;24.98;11.02;;;;;;;0.79;100.00;100412.84;5193178;28;20028;-79
2021/12/11 09:00:35;;;;;;;27.50;10.95;;;;;;;0.67;100.00;100412.81;5198535;28;20094;-81
2021/12/11 09:03:16;;;;;;;27.65;10.85;;;;;;;0.82;100.00;100414.53;5194785;28;20103;-81
2021/12/11 09:05:56;;;;;;;28.23;10.63;;;;;;;0.87;100.00;100416.25;5193671;28;20507;-78
2021/12/11 09:08:44;;;;;;;27.58;11.32;;;;;;;0.83;100.00;100422.25;5193441;28;20048;-80
2021/12/11 09:11:20;;;;;;;23.80;9.88;;;;;;;0.88;100.00;100430.84;5191383;28;20387;-81
2021/12/11 09:13:59;;;;;;;23.33;10.00;;;;;;;1.02;100.00;100435.97;5193387;28;20112;-81
2021/12/11 09:16:39;;;;;;;25.17;10.50;;;;;;;0.88;100.00;100428.25;5196714;28;20720;-81
2021/12/11 09:19:20;;;;;;;23.10;9.52;;;;;;;1.16;100.00;100430.00;5192905;28;20036;-80
2021/12/11 09:22:06;;;;;;;23.02;10.00;;;;;;;1.12;100.00;100427.41;5187633;28;20041;-78
2021/12/11 09:24:55;;;;;;;23.67;10.13;;;;;;;0.97;100.00;100433.44;5188079;28;20029;-80
2021/12/11 09:27:47;;;;;;;23.67;9.93;;;;;;;1.15;100.00;100433.41;5191609;28;20037;-80
2021/12/11 09:30:32;;;;;;;21.85;9.95;;;;;;;1.05;100.00;100438.56;5196194;28;20057;-79
2021/12/11 09:33:10;;;;;;;21.67;9.82;;;;;;;1.30;100.00;100437.69;5192331;28;20483;-79
2021/12/11 09:35:48;;;;;;;20.50;9.48;;;;;;;1.22;100.00;100442.84;5191919;28;20060;-80
2021/12/11 09:38:29;;;;;;;20.38;10.57;;;;;;;1.37;100.00;100445.41;5181704;28;20069;-80
2021/12/11 09:41:19;;;;;;;20.45;10.00;;;;;;;1.29;100.00;100452.28;5190058;28;20123;-81
2021/12/11 09:44:10;;;;;;;18.55;9.68;;;;;;;1.83;100.00;100475.38;5190264;28;20049;-79
2021/12/11 09:46:47;;;;;;;20.33;10.20;;;;;;;1.83;100.00;100468.50;5194748;28;20037;-77
2021/12/11 09:49:25;;;;;;;19.08;9.35;;;;;;;1.76;100.00;100480.53;5195479;28;20122;-81
2021/12/11 09:52:02;;;;;;;20.27;9.75;;;;;;;1.90;100.00;100482.22;5195020;28;20030;-79
2021/12/11 09:54:35;;;;;;;19.60;9.55;;;;;;;1.93;100.00;100477.06;5196467;28;20049;-80
2021/12/11 09:57:09;;;;;;;19.67;10.20;;;;;;;1.60;100.00;100490.00;5196179;28;20080;-79
2021/12/11 09:59:41;;;;;;;24.60;11.38;;;;;;;2.00;100.00;100500.22;5195707;28;20832;-81
2021/12/11 10:02:24;;;;;;;18.15;10.15;;;;;;;2.03;100.00;100497.63;5192337;28;20030;-78
2021/12/11 10:05:31;;;;;;;20.80;9.45;;;;;;;1.99;100.00;100501.09;5194164;28;20113;-81
2021/12/11 10:11:08;;;;;;;17.17;9.77;;;;;;;2.25;100.00;100508.75;5196010;28;20048;-79
2021/12/11 10:13:44;;;;;;;19.58;10.15;;;;;;;2.48;100.00;100512.13;5190704;28;20487;-81
2021/12/11 10:16:17;;;;;;;18.30;10.27;;;;;;;2.29;100.00;100507.84;5197580;28;20033;-79
2021/12/11 10:18:49;;;;;;;18.08;9.38;;;;;;;2.30;100.00;100505.28;5194549;28;20049;-80
2021/12/11 10:21:47;;;;;;;20.92;9.23;;;;;;;2.26;100.00;100511.31;5180967;28;20090;-81
2021/12/11 10:24:24;;;;;;;17.55;9.88;;;;;;;2.45;100.00;100506.94;5192320;28;20492;-80
2021/12/11 10:26:56;;;;;;;18.95;9.65;;;;;;;2.32;100.00;100507.88;5194566;28;20107;-79
2021/12/11 10:29:27;;;;;;;19.85;9.48;;;;;;;2.56;100.00;100498.31;5196834;28;20094;-80
2021/12/11 10:32:02;;;;;;;17.08;9.70;;;;;;;2.32;100.00;100510.44;5196527;28;20037;-80
2021/12/11 10:34:34;;;;;;;17.92;9.65;;;;;;;2.46;100.00;100506.94;5191961;28;20528;-80
2021/12/11 10:37:12;;;;;;;20.27;10.88;;;;;;;2.67;100.00;100512.00;5181885;28;20084;-81
2021/12/11 10:39:47;;;;;;;16.77;9.82;;;;;;;2.53;100.00;100516.34;5201525;28;20049;-79
2021/12/11 10:42:18;;;;;;;17.75;10.27;;;;;;;2.49;100.00;100519.81;5183990;28;20072;-80
2021/12/11 10:44:52;;;;;;;19.27;10.65;;;;;;;2.48;100.00;100532.75;5198719;28;20680;-80
2021/12/11 10:47:29;;;;;;;19.45;9.77;;;;;;;2.45;100.00;100528.44;5201154;28;20101;-82
2021/12/11 10:50:03;;;;;;;18.35;9.93;;;;;;;2.63;100.00;100533.53;5198142;28;20038;-81
2021/12/11 10:52:34;;;;;;;17.83;10.38;;;;;;;2.80;100.00;100534.28;5189361;28;20155;-79
2021/12/11 10:55:11;;;;;;;19.10;10.30;;;;;;;2.83;100.00;100536.00;5174264;28;20041;-81
2021/12/11 10:57:41;;;;;;;18.38;10.00;;;;;;;2.72;100.00;100542.94;5184892;28;20619;-78
2021/12/11 11:00:28;;;;;;;20.17;10.02;;;;;;;2.85;100.00;100545.44;5192946;28;20144;-80
2021/12/11 11:02:59;;;;;;;20.02;9.80;;;;;;;3.05;100.00;100555.66;5193180;28;20104;-78
2021/12/11 11:05:30;;;;;;;17.65;10.20;;;;;;;2.87;100.00;100558.34;5193380;28;20053;-80
2021/12/11 11:08:03;;;;;;;19.20;10.02;;;;;;;2.94;100.00;100557.44;5192685;28;20097;-79
2021/12/11 11:10:39;;;;;;;18.15;10.18;;;;;;;2.65;100.00;100562.75;5184723;28;20064;-78
2021/12/11 11:13:13;;;;;;;20.63;10.07;;;;;;;2.59;100.00;100567.94;5193824;28;20400;-78
2021/12/11 11:15:43;;;;;;;18.13;8.80;;;;;;;2.74;100.00;100562.72;5195264;28;20495;-79
2021/12/11 11:18:18;;;;;;;20.00;10.40;;;;;;;2.76;100.00;100570.44;5199989;28;20059;-79
2021/12/11 11:20:54;;;;;;;20.80;11.18;;;;;;;2.85;100.00;100570.41;5194424;28;20037;-79
2021/12/11 11:23:25;;;;;;;17.02;9.77;;;;;;;2.92;100.00;100572.06;5191825;28;20057;-78
2021/12/11 11:25:58;;;;;;;17.17;9.98;;;;;;;2.87;100.00;100579.00;5191344;28;20057;-81
2021/12/11 11:28:32;;;;;;;17.83;9.65;;;;;;;2.79;100.00;100583.31;5188392;28;20692;-81
2021/12/11 11:31:09;;;;;;;17.35;8.85;;;;;;;2.91;100.00;100581.56;5198194;28;20021;-79
2021/12/11 11:33:41;;;;;;;17.38;9.43;;;;;;;2.99;100.00;100579.78;5200744;28;20037;-80
2021/12/11 11:36:15;;;;;;;16.90;9.10;;;;;;;3.17;100.00;100589.16;5186686;28;20030;-78
2021/12/11 11:38:52;;;;;;;16.55;9.27;;;;;;;3.13;100.00;100592.59;5180018;28;20028;-83
2021/12/11 11:41:29;;;;;;;18.17;9.40;;;;;;;2.99;100.00;100597.84;5184328;28;20101;-80
2021/12/11 11:44:02;;;;;;;19.77;10.07;;;;;;;2.98;100.00;100587.50;5180377;28;20034;-77
2021/12/11 11:46:35;;;;;;;16.48;9.57;;;;;;;3.16;100.00;100597.78;5193527;28;20542;-80
2021/12/11 11:49:08;;;;;;;17.48;9.38;;;;;;;3.29;100.00;100589.94;5201216;28;20033;-80
2021/12/11 11:51:50;;;;;;;19.52;9.65;;;;;;;3.34;100.00;100601.09;5199944;28;20457;-78
2021/12/11 11:54:25;;;;;;;16.27;8.65;;;;;;;3.32;100.00;100609.69;5189445;28;20073;-82
2021/12/11 11:57:01;;;;;;;18.92;9.25;;;;;;;3.07;100.00;100613.28;5197681;28;20044;-80
2021/12/11 11:59:33;;;;;;;16.35;9.02;;;;;;;3.22;100.00;100613.22;5196459;28;20037;-80
2021/12/11 12:02:09;;;;;;;18.05;9.35;;;;;;;3.15;100.00;100611.53;5192030;28;20108;-80
2021/12/11 12:04:40;;;;;;;17.77;9.13;;;;;;;3.13;100.00;100613.25;5183747;28;20483;-81
2021/12/11 12:07:11;;;;;;;20.08;10.05;;;;;;;3.20;100.00;100620.13;5192770;28;20037;-80
2021/12/11 12:09:44;;;;;;;18.58;9.60;;;;;;;3.09;100.00;100624.47;5200026;28;20041;-79